createdAt,value
2019-01-25T00:00:11.053Z,20.47
2019-01-25T00:02:40.205Z,20.43
2019-01-25T00:05:09.356Z,21.33
2019-01-25T00:07:39.736Z,21.13
2019-01-25T00:10:08.915Z,20.77
2019-01-25T00:12:38.092Z,20.47
2019-01-25T00:15:07.297Z,21.83
2019-01-25T00:17:37.723Z,20.63
2019-01-25T00:20:07.154Z,21.90
2019-01-25T00:22:36.300Z,21.23
2019-01-25T00:25:05.502Z,21.73
2019-01-25T00:27:34.704Z,20.37
2019-01-25T00:30:04.588Z,21.40
2019-01-25T00:32:33.717Z,19.23
2019-01-25T00:35:02.867Z,19.90
2019-01-25T00:37:32.056Z,19.67
2019-01-25T00:40:06.152Z,19.07
2019-01-25T00:42:30.401Z,21.97
2019-01-25T00:44:59.545Z,20.93
2019-01-25T00:47:28.745Z,19.03
2019-01-25T00:49:57.911Z,19.47
2019-01-25T00:52:27.069Z,18.67
2019-01-25T00:54:56.229Z,19.53
2019-01-25T00:57:25.366Z,20.23
2019-01-25T00:59:54.517Z,21.43
2019-01-25T01:02:23.675Z,20.20
2019-01-25T01:04:52.881Z,20.23
2019-01-25T01:07:22.043Z,21.97
2019-01-25T01:09:51.206Z,20.87
2019-01-25T01:12:20.416Z,21.53
2019-01-25T01:14:49.541Z,18.50
2019-01-25T01:17:18.704Z,19.23
2019-01-25T01:19:47.844Z,17.83
2019-01-25T01:22:17.022Z,17.43
2019-01-25T01:24:46.159Z,18.77
2019-01-25T01:27:15.314Z,19.00
2019-01-25T01:29:44.446Z,20.13
2019-01-25T01:32:13.593Z,19.60
2019-01-25T01:34:42.796Z,17.53
2019-01-25T01:37:11.978Z,18.40
2019-01-25T01:39:41.111Z,19.13
2019-01-25T01:42:10.311Z,18.67
2019-01-25T01:44:39.457Z,19.50
2019-01-25T01:47:08.582Z,19.70
2019-01-25T01:49:37.833Z,18.33
2019-01-25T01:52:06.997Z,19.20
2019-01-25T01:54:36.141Z,18.90
2019-01-25T01:57:05.279Z,17.93
2019-01-25T01:59:34.477Z,18.27
2019-01-25T02:02:03.617Z,20.20
2019-01-25T02:04:32.766Z,20.63
2019-01-25T02:07:01.936Z,20.03
2019-01-25T02:09:31.109Z,20.23
2019-01-25T02:12:00.238Z,22.20
2019-01-25T02:14:29.394Z,21.00
2019-01-25T02:16:58.570Z,26.97
2019-01-25T02:19:27.733Z,25.90
2019-01-25T02:21:56.981Z,26.63
2019-01-25T02:24:26.192Z,22.77
2019-01-25T02:26:56.578Z,24.07
2019-01-25T02:29:24.515Z,25.73
2019-01-25T02:31:53.671Z,22.70
2019-01-25T02:34:22.865Z,24.03
2019-01-25T02:36:52.065Z,23.00
2019-01-25T02:39:21.194Z,23.57
2019-01-25T02:41:50.431Z,21.93
2019-01-25T02:44:19.557Z,23.07
2019-01-25T02:46:48.788Z,22.00
2019-01-25T02:49:17.966Z,22.00
2019-01-25T02:51:47.119Z,21.83
2019-01-25T02:54:16.277Z,22.70
2019-01-25T02:56:45.477Z,22.87
2019-01-25T02:59:14.623Z,23.83
2019-01-25T03:01:43.751Z,23.93
2019-01-25T03:04:12.907Z,26.03
2019-01-25T03:06:42.034Z,22.37
2019-01-25T03:09:11.218Z,24.23
2019-01-25T03:11:40.373Z,22.90
2019-01-25T03:14:09.517Z,21.90
2019-01-25T03:16:38.688Z,22.10
2019-01-25T03:19:07.849Z,20.47
2019-01-25T03:21:36.982Z,21.20
2019-01-25T03:24:06.141Z,22.70
2019-01-25T03:26:35.277Z,22.53
2019-01-25T03:29:04.409Z,23.17
2019-01-25T03:31:33.571Z,24.13
2019-01-25T03:34:02.732Z,23.47
2019-01-25T03:36:31.890Z,24.77
2019-01-25T03:39:01.098Z,25.50
2019-01-25T03:41:30.225Z,23.60
2019-01-25T03:43:59.383Z,23.00
2019-01-25T03:46:28.569Z,23.00
2019-01-25T03:48:57.760Z,24.63
2019-01-25T03:51:26.929Z,24.80
2019-01-25T03:53:56.100Z,27.07
2019-01-25T03:56:25.238Z,23.70
2019-01-25T03:58:54.373Z,25.60
2019-01-25T04:01:23.518Z,24.03
2019-01-25T04:03:52.791Z,24.57
2019-01-25T04:06:21.944Z,23.57
2019-01-25T04:08:51.089Z,24.00
2019-01-25T04:11:20.279Z,23.47
2019-01-25T04:13:49.453Z,22.17
2019-01-25T04:16:18.569Z,23.77
2019-01-25T04:18:47.741Z,23.63
2019-01-25T04:21:16.879Z,23.73
2019-01-25T04:23:46.040Z,24.77
2019-01-25T04:26:15.276Z,23.70
2019-01-25T04:28:44.413Z,24.57
2019-01-25T04:31:13.542Z,25.57
2019-01-25T04:33:42.690Z,25.13
2019-01-25T04:36:11.827Z,28.20
2019-01-25T04:38:40.996Z,30.13
2019-01-25T04:41:11.774Z,28.30
2019-01-25T04:43:39.289Z,29.03
2019-01-25T04:46:08.450Z,33.37
2019-01-25T04:48:37.591Z,32.13
2019-01-25T04:51:09.128Z,30.97
2019-01-25T04:53:38.283Z,31.03
2019-01-25T04:56:07.425Z,30.67
2019-01-25T04:58:36.590Z,39.67
2019-01-25T05:01:06.561Z,39.30
2019-01-25T05:03:35.701Z,35.10
2019-01-25T05:06:05.253Z,33.70
2019-01-25T05:08:34.425Z,30.13
2019-01-25T05:11:03.582Z,26.97
2019-01-25T05:13:32.740Z,26.33
2019-01-25T05:16:01.901Z,31.97
2019-01-25T05:18:32.363Z,33.00
2019-01-25T05:21:01.627Z,36.23
2019-01-25T05:23:30.926Z,38.97
2019-01-25T05:26:00.326Z,39.60
2019-01-25T05:28:29.557Z,43.57
2019-01-25T05:31:00.769Z,40.90
2019-01-25T05:33:29.910Z,43.07
2019-01-25T05:35:59.063Z,33.07
2019-01-25T05:38:28.211Z,44.57
2019-01-25T05:40:57.404Z,47.90
2019-01-25T05:43:26.588Z,59.07
2019-01-25T05:45:55.755Z,57.93
2019-01-25T05:48:28.507Z,52.40
2019-01-25T05:51:00.246Z,34.57
2019-01-25T05:53:29.442Z,34.63
2019-01-25T05:55:58.661Z,24.33
2019-01-25T05:58:27.853Z,26.80
2019-01-25T06:00:57.028Z,27.57
2019-01-25T06:03:26.209Z,25.27
2019-01-25T06:05:59.226Z,26.37
2019-01-25T06:08:31.169Z,27.67
2019-01-25T06:11:02.055Z,27.17
2019-01-25T06:13:31.210Z,22.60
2019-01-25T06:16:00.397Z,19.67
2019-01-25T06:18:29.625Z,23.47
2019-01-25T06:21:00.016Z,25.33
2019-01-25T06:23:29.158Z,25.07
2019-01-25T06:25:59.955Z,26.23
2019-01-25T06:28:29.122Z,25.37
2019-01-25T06:31:00.739Z,25.43
2019-01-25T06:33:29.885Z,30.00
2019-01-25T06:36:00.333Z,30.50
2019-01-25T06:38:30.940Z,28.10
2019-01-25T06:41:00.065Z,28.20
2019-01-25T06:43:29.226Z,27.67
2019-01-25T06:45:58.392Z,27.03
2019-01-25T06:48:27.513Z,25.13
2019-01-25T06:50:56.708Z,25.17
2019-01-25T06:53:25.883Z,26.80
2019-01-25T06:55:55.052Z,28.53
2019-01-25T06:58:29.809Z,23.70
2019-01-25T07:01:05.571Z,25.07
2019-01-25T07:03:34.710Z,23.17
2019-01-25T07:06:05.004Z,20.17
2019-01-25T07:08:35.517Z,18.60
2019-01-25T07:11:04.794Z,15.97
2019-01-25T07:13:33.929Z,14.73
2019-01-25T07:16:03.222Z,13.57
2019-01-25T07:18:32.364Z,13.53
2019-01-25T07:21:02.804Z,14.23
2019-01-25T07:23:31.929Z,14.00
2019-01-25T07:26:01.141Z,14.47
2019-01-25T07:28:30.361Z,13.93
2019-01-25T07:30:59.667Z,16.77
2019-01-25T07:33:28.710Z,16.63
2019-01-25T07:35:57.904Z,18.63
2019-01-25T07:38:27.085Z,18.00
2019-01-25T07:40:56.320Z,17.23
2019-01-25T07:43:25.386Z,17.20
2019-01-25T07:45:54.629Z,18.20
2019-01-25T07:48:26.313Z,16.27
2019-01-25T07:50:55.491Z,17.73
2019-01-25T07:53:24.700Z,17.43
2019-01-25T07:55:55.048Z,17.80
2019-01-25T07:58:24.217Z,19.43
2019-01-25T08:00:53.429Z,18.23
2019-01-25T08:03:22.692Z,20.57
2019-01-25T08:05:51.856Z,21.43
2019-01-25T08:08:21.020Z,21.80
2019-01-25T08:10:50.164Z,16.50
2019-01-25T08:13:19.386Z,22.50
2019-01-25T08:15:48.724Z,19.87
2019-01-25T08:18:17.849Z,16.47
2019-01-25T08:20:47.007Z,25.10
2019-01-25T08:23:16.171Z,22.13
2019-01-25T08:25:45.442Z,19.40
2019-01-25T08:28:14.599Z,17.23
2019-01-25T08:30:43.745Z,17.47
2019-01-25T08:33:14.213Z,20.93
2019-01-25T08:35:43.473Z,20.23
2019-01-25T08:38:12.621Z,27.00
2019-01-25T08:40:43.035Z,21.83
2019-01-25T08:43:12.237Z,31.50
2019-01-25T08:45:41.382Z,22.87
2019-01-25T08:48:11.753Z,19.47
2019-01-25T08:50:40.957Z,20.53
2019-01-25T08:53:10.144Z,22.53
2019-01-25T08:55:39.303Z,20.27
2019-01-25T08:58:09.781Z,16.70
2019-01-25T09:00:38.926Z,18.13
2019-01-25T09:03:08.065Z,17.97
2019-01-25T09:05:39.717Z,19.37
2019-01-25T09:08:08.864Z,21.50
2019-01-25T09:10:38.050Z,17.50
2019-01-25T09:13:07.204Z,18.27
2019-01-25T09:15:37.630Z,18.50
2019-01-25T09:18:08.261Z,18.77
2019-01-25T09:20:37.455Z,21.10
2019-01-25T09:23:06.669Z,20.47
2019-01-25T09:25:35.807Z,19.07
2019-01-25T09:28:04.997Z,14.90
2019-01-25T09:30:35.576Z,15.73
2019-01-25T09:33:04.729Z,16.43
2019-01-25T09:35:33.910Z,17.70
2019-01-25T09:38:03.066Z,15.30
2019-01-25T09:40:33.498Z,14.73
2019-01-25T09:43:02.641Z,13.73
2019-01-25T09:45:31.781Z,13.13
2019-01-25T09:48:00.989Z,17.33
2019-01-25T09:50:30.127Z,11.73
2019-01-25T09:52:59.355Z,12.93
2019-01-25T09:55:28.530Z,12.27
2019-01-25T09:57:59.929Z,10.33
2019-01-25T10:00:30.582Z,13.23
2019-01-25T10:02:59.735Z,11.30
2019-01-25T10:05:30.185Z,11.20
2019-01-25T10:07:59.393Z,11.57
2019-01-25T10:10:28.651Z,12.97
2019-01-25T10:13:00.244Z,10.80
2019-01-25T10:15:29.385Z,10.80
2019-01-25T10:17:58.523Z,10.23
2019-01-25T10:20:27.681Z,13.97
2019-01-25T10:22:56.825Z,11.40
2019-01-25T10:25:25.960Z,11.47
2019-01-25T10:27:55.519Z,16.33
2019-01-25T10:30:24.669Z,13.63
2019-01-25T10:32:53.862Z,15.50
2019-01-25T10:35:23.079Z,12.63
2019-01-25T10:37:52.235Z,11.60
2019-01-25T10:40:21.462Z,13.07
2019-01-25T10:42:53.159Z,12.37
2019-01-25T10:45:22.181Z,11.90
2019-01-25T10:47:51.324Z,16.03
2019-01-25T10:50:21.789Z,14.37
2019-01-25T10:52:52.164Z,11.20
2019-01-25T10:55:21.315Z,11.30
2019-01-25T10:57:50.436Z,10.67
2019-01-25T11:00:19.618Z,11.70
2019-01-25T11:02:48.829Z,13.00
2019-01-25T11:05:19.025Z,12.20
2019-01-25T11:07:48.309Z,15.60
2019-01-25T11:10:17.746Z,13.20
2019-01-25T11:12:46.941Z,10.30
2019-01-25T11:15:16.940Z,10.80
2019-01-25T11:17:46.199Z,10.77
2019-01-25T11:20:16.151Z,10.87
2019-01-25T11:22:45.337Z,10.17
2019-01-25T11:25:16.974Z,10.30
2019-01-25T11:27:47.426Z,10.30
2019-01-25T11:30:16.992Z,10.07
2019-01-25T11:32:46.198Z,11.03
2019-01-25T11:35:15.348Z,10.23
2019-01-25T11:37:44.528Z,10.10
2019-01-25T11:40:16.304Z,10.20
2019-01-25T11:42:45.484Z,10.13
2019-01-25T11:45:17.125Z,9.93
2019-01-25T11:47:46.323Z,10.57
2019-01-25T11:50:15.657Z,10.90
2019-01-25T11:52:44.829Z,10.77
2019-01-25T11:55:15.358Z,10.77
2019-01-25T11:57:44.552Z,12.10
2019-01-25T12:00:16.455Z,11.47
2019-01-25T12:02:45.631Z,12.13
2019-01-25T12:05:16.481Z,13.03
2019-01-25T12:07:45.670Z,12.63
2019-01-25T12:10:15.194Z,11.93
2019-01-25T12:12:45.697Z,12.17
2019-01-25T12:15:15.562Z,12.13
2019-01-25T12:17:46.020Z,12.17
2019-01-25T12:20:16.469Z,12.83
2019-01-25T12:22:45.620Z,12.57
2019-01-25T12:25:14.768Z,13.10
2019-01-25T12:27:43.900Z,12.63
2019-01-25T12:30:15.992Z,11.53
2019-01-25T12:32:45.121Z,12.60
2019-01-25T12:35:14.269Z,13.27
2019-01-25T12:37:44.729Z,13.50
2019-01-25T12:40:13.895Z,11.97
2019-01-25T12:42:43.051Z,12.77
2019-01-25T12:45:15.717Z,13.13
2019-01-25T12:47:44.884Z,13.23
2019-01-25T12:50:18.154Z,12.83
2019-01-25T12:52:47.350Z,13.60
2019-01-25T12:55:16.489Z,13.40
2019-01-25T12:57:45.942Z,14.60
2019-01-25T13:00:15.455Z,15.10
2019-01-25T13:02:44.704Z,19.13
2019-01-25T13:05:14.567Z,15.17
2019-01-25T13:07:44.942Z,16.20
2019-01-25T13:10:14.361Z,13.90
2019-01-25T13:12:46.385Z,14.70
2019-01-25T13:15:15.583Z,15.03
2019-01-25T13:17:44.729Z,14.27
2019-01-25T13:20:15.054Z,16.67
2019-01-25T13:22:46.681Z,17.27
2019-01-25T13:25:15.881Z,17.50
2019-01-25T13:27:45.133Z,16.90
2019-01-25T13:30:15.506Z,18.80
2019-01-25T13:32:44.650Z,17.93
2019-01-25T13:35:13.891Z,20.17
2019-01-25T13:37:45.220Z,16.87
2019-01-25T13:40:15.290Z,17.53
2019-01-25T13:42:44.482Z,17.27
2019-01-25T13:45:15.602Z,16.90
2019-01-25T13:47:44.779Z,17.57
2019-01-25T13:50:14.906Z,16.90
2019-01-25T13:52:44.108Z,17.43
2019-01-25T13:55:13.539Z,18.40
2019-01-25T13:57:42.693Z,18.33
2019-01-25T14:00:16.919Z,18.23
2019-01-25T14:02:46.089Z,18.53
2019-01-25T14:05:15.299Z,18.67
2019-01-25T14:07:49.797Z,18.70
2019-01-25T14:10:22.436Z,17.40
2019-01-25T14:12:51.595Z,19.33
2019-01-25T14:15:20.760Z,17.60
2019-01-25T14:17:49.906Z,16.87
2019-01-25T14:20:23.420Z,17.43
2019-01-25T14:22:51.656Z,17.97
2019-01-25T14:25:20.955Z,18.97
2019-01-25T14:27:50.104Z,18.47
2019-01-25T14:30:23.259Z,20.00
2019-01-25T14:32:52.415Z,19.73
2019-01-25T14:35:21.655Z,18.40
2019-01-25T14:37:52.552Z,18.33
2019-01-25T14:40:21.213Z,18.37
2019-01-25T14:42:50.359Z,18.90
2019-01-25T14:45:19.574Z,17.53
2019-01-25T14:47:51.217Z,18.40
2019-01-25T14:50:21.073Z,17.67
2019-01-25T14:52:50.290Z,18.13
2019-01-25T14:55:19.503Z,18.03
2019-01-25T14:57:48.675Z,17.10
2019-01-25T15:00:17.846Z,17.67
2019-01-25T15:02:46.965Z,18.73
2019-01-25T15:05:16.796Z,18.20
2019-01-25T15:07:46.000Z,18.07
2019-01-25T15:10:16.145Z,19.57
2019-01-25T15:12:45.362Z,18.03
2019-01-25T15:15:14.613Z,19.20
2019-01-25T15:17:43.746Z,18.77
2019-01-25T15:20:14.501Z,18.70
2019-01-25T15:22:46.136Z,17.63
2019-01-25T15:25:15.276Z,18.00
2019-01-25T15:27:44.430Z,20.53
2019-01-25T15:30:16.175Z,19.10
2019-01-25T15:32:45.300Z,19.93
2019-01-25T15:35:14.885Z,20.40
2019-01-25T15:37:44.149Z,18.87
2019-01-25T15:40:13.657Z,18.20
2019-01-25T15:42:44.117Z,18.33
2019-01-25T15:45:13.624Z,18.77
2019-01-25T15:47:42.774Z,20.07
2019-01-25T15:50:16.004Z,19.40
2019-01-25T15:52:45.155Z,18.97
2019-01-25T15:55:14.320Z,18.43
2019-01-25T15:57:44.727Z,19.60
2019-01-25T16:00:14.969Z,18.93
2019-01-25T16:02:44.094Z,22.50
2019-01-25T16:05:13.983Z,22.83
2019-01-25T16:07:44.385Z,22.90
2019-01-25T16:10:14.436Z,23.60
2019-01-25T16:12:43.574Z,20.77
2019-01-25T16:15:13.845Z,21.97
2019-01-25T16:17:45.481Z,21.33
2019-01-25T16:20:14.990Z,20.70
2019-01-25T16:22:44.152Z,20.50
2019-01-25T16:25:14.607Z,19.03
2019-01-25T16:27:43.780Z,20.17
2019-01-25T16:30:15.296Z,19.50
2019-01-25T16:32:44.475Z,21.03
2019-01-25T16:35:13.686Z,20.40
2019-01-25T16:37:42.850Z,20.43
2019-01-25T16:40:15.733Z,22.00
2019-01-25T16:42:43.428Z,23.70
2019-01-25T16:45:14.173Z,23.00
2019-01-25T16:47:43.350Z,21.50
2019-01-25T16:50:12.540Z,21.07
2019-01-25T16:52:41.733Z,23.27
2019-01-25T16:55:11.927Z,23.63
2019-01-25T16:57:41.128Z,22.63
2019-01-25T17:00:14.941Z,23.20
2019-01-25T17:02:44.111Z,25.90
2019-01-25T17:05:13.246Z,32.43
2019-01-25T17:07:42.417Z,31.77
2019-01-25T17:10:11.574Z,27.80
2019-01-25T17:12:40.783Z,26.23
2019-01-25T17:15:10.026Z,24.73
2019-01-25T17:17:39.376Z,25.90
2019-01-25T17:20:08.507Z,25.07
2019-01-25T17:22:37.637Z,25.47
2019-01-25T17:25:07.277Z,25.30
2019-01-25T17:27:36.460Z,24.83
2019-01-25T17:30:06.990Z,26.67
2019-01-25T17:32:36.143Z,25.23
2019-01-25T17:35:05.981Z,24.57
2019-01-25T17:37:35.130Z,25.63
2019-01-25T17:40:05.830Z,26.53
2019-01-25T17:42:35.008Z,26.33
2019-01-25T17:45:05.811Z,25.10
2019-01-25T17:47:34.962Z,25.33
2019-01-25T17:50:04.552Z,25.67
2019-01-25T17:52:33.686Z,26.93
2019-01-25T17:55:02.814Z,25.80
2019-01-25T17:57:31.970Z,26.17
2019-01-25T18:00:01.243Z,26.93
2019-01-25T18:02:31.532Z,27.77
2019-01-25T18:05:00.800Z,26.73
2019-01-25T18:07:29.949Z,26.53
2019-01-25T18:09:59.097Z,25.77
2019-01-25T18:12:28.280Z,27.33
2019-01-25T18:14:57.441Z,26.93
2019-01-25T18:17:28.879Z,25.57
2019-01-25T18:19:58.913Z,24.07
2019-01-25T18:22:28.062Z,25.10
2019-01-25T18:24:57.193Z,26.17
2019-01-25T18:27:26.340Z,25.07
2019-01-25T18:29:58.121Z,25.50
2019-01-25T18:32:27.262Z,25.90
2019-01-25T18:34:57.554Z,26.37
2019-01-25T18:37:26.744Z,25.60
2019-01-25T18:39:56.097Z,23.37
2019-01-25T18:42:25.046Z,23.33
2019-01-25T18:44:56.873Z,23.70
2019-01-25T18:47:25.391Z,23.63
2019-01-25T18:49:54.544Z,23.33
2019-01-25T18:52:24.940Z,22.47
2019-01-25T18:54:54.093Z,22.27
2019-01-25T18:57:23.267Z,24.03
2019-01-25T18:59:52.471Z,23.63
2019-01-25T19:02:21.702Z,22.83
2019-01-25T19:04:50.857Z,24.27
2019-01-25T19:07:20.021Z,24.67
2019-01-25T19:09:49.876Z,23.67
2019-01-25T19:12:19.006Z,23.13
2019-01-25T19:14:48.194Z,22.53
2019-01-25T19:17:18.153Z,20.57
2019-01-25T19:19:47.355Z,22.43
2019-01-25T19:22:16.493Z,22.93
2019-01-25T19:24:46.335Z,24.33
2019-01-25T19:27:15.583Z,23.70
2019-01-25T19:29:44.727Z,22.27
2019-01-25T19:32:15.150Z,22.47
2019-01-25T19:34:44.315Z,22.70
2019-01-25T19:37:13.448Z,23.53
2019-01-25T19:39:42.578Z,25.70
2019-01-25T19:42:13.676Z,25.93
2019-01-25T19:44:44.042Z,26.47
2019-01-25T19:47:13.725Z,25.07
2019-01-25T19:49:44.101Z,24.00
2019-01-25T19:52:13.227Z,24.60
2019-01-25T19:54:42.378Z,24.80
2019-01-25T19:57:12.797Z,23.97
2019-01-25T19:59:44.505Z,24.90
2019-01-25T20:02:13.668Z,23.37
2019-01-25T20:04:44.111Z,24.67
2019-01-25T20:07:13.241Z,24.23
2019-01-25T20:09:43.746Z,23.33
2019-01-25T20:12:13.013Z,25.60
2019-01-25T20:14:43.370Z,25.17
2019-01-25T20:17:12.581Z,25.27
2019-01-25T20:19:41.749Z,24.93
2019-01-25T20:22:10.951Z,24.70
2019-01-25T20:24:40.112Z,25.40
2019-01-25T20:27:09.247Z,25.40
2019-01-25T20:29:40.917Z,25.87
2019-01-25T20:32:10.090Z,26.13
2019-01-25T20:34:39.263Z,26.10
2019-01-25T20:37:08.393Z,26.73
2019-01-25T20:39:37.618Z,26.87
2019-01-25T20:42:06.779Z,26.63
2019-01-25T20:44:35.898Z,26.97
2019-01-25T20:47:05.048Z,25.93
2019-01-25T20:49:34.209Z,27.73
2019-01-25T20:52:04.728Z,32.20
2019-01-25T20:54:33.956Z,28.27
2019-01-25T20:57:03.095Z,29.07
2019-01-25T20:59:33.533Z,25.33
2019-01-25T21:02:05.388Z,28.17
2019-01-25T21:04:34.592Z,27.47
2019-01-25T21:07:03.762Z,28.23
2019-01-25T21:09:33.037Z,26.57
2019-01-25T21:12:03.541Z,26.53
2019-01-25T21:14:33.945Z,28.50
2019-01-25T21:17:03.113Z,26.10
2019-01-25T21:19:34.823Z,27.13
2019-01-25T21:22:03.985Z,28.07
2019-01-25T21:24:34.429Z,26.47
2019-01-25T21:27:03.584Z,27.37
2019-01-25T21:29:32.737Z,26.20
2019-01-25T21:32:01.929Z,28.53
2019-01-25T21:34:31.117Z,27.30
2019-01-25T21:37:00.301Z,27.77
2019-01-25T21:39:29.505Z,26.90
2019-01-25T21:41:58.826Z,27.07
2019-01-25T21:44:28.013Z,28.70
2019-01-25T21:46:57.194Z,26.97
2019-01-25T21:49:26.365Z,26.67
2019-01-25T21:51:55.552Z,27.57
2019-01-25T21:54:24.739Z,27.03
2019-01-25T21:56:54.008Z,28.80
2019-01-25T21:59:23.249Z,28.40
2019-01-25T22:01:52.569Z,28.27
2019-01-25T22:04:23.389Z,27.33
2019-01-25T22:06:52.114Z,27.07
2019-01-25T22:09:21.470Z,26.70
2019-01-25T22:11:50.610Z,27.80
2019-01-25T22:14:19.786Z,26.83
2019-01-25T22:16:48.932Z,27.60
2019-01-25T22:19:18.147Z,25.70
2019-01-25T22:21:47.328Z,27.93
2019-01-25T22:24:16.465Z,27.87
2019-01-25T22:26:45.613Z,27.00
2019-01-25T22:29:18.484Z,28.03
2019-01-25T22:31:47.817Z,26.80
2019-01-25T22:34:16.967Z,27.53
2019-01-25T22:36:46.183Z,28.83
2019-01-25T22:39:15.396Z,27.83
2019-01-25T22:41:44.579Z,27.23
2019-01-25T22:44:13.799Z,27.10
2019-01-25T22:46:42.961Z,28.57
2019-01-25T22:49:12.175Z,27.03
2019-01-25T22:51:41.369Z,27.50
2019-01-25T22:54:10.604Z,28.10
2019-01-25T22:56:40.975Z,27.37
2019-01-25T22:59:10.171Z,28.03
2019-01-25T23:01:39.336Z,26.80
2019-01-25T23:04:12.096Z,25.20
2019-01-25T23:06:46.507Z,26.70
2019-01-25T23:09:17.770Z,25.97
2019-01-25T23:11:46.956Z,26.67
2019-01-25T23:14:16.182Z,27.13
2019-01-25T23:16:45.836Z,25.63
2019-01-25T23:19:15.054Z,25.67
2019-01-25T23:21:44.261Z,26.13
2019-01-25T23:24:13.562Z,26.23
2019-01-25T23:26:42.750Z,25.30
2019-01-25T23:29:11.940Z,25.23
2019-01-25T23:31:42.342Z,24.97
2019-01-25T23:34:11.566Z,25.23
2019-01-25T23:36:40.780Z,25.67
2019-01-25T23:39:10.276Z,26.07
2019-01-25T23:41:39.436Z,25.03
2019-01-25T23:44:08.681Z,24.87
2019-01-25T23:46:37.937Z,25.10
2019-01-25T23:49:07.207Z,25.50
2019-01-25T23:51:36.378Z,24.67
2019-01-25T23:54:07.280Z,25.33
2019-01-25T23:56:36.446Z,26.33
2019-01-25T23:59:05.725Z,23.63
